createdAt,value
2018-07-12T00:01:46.172Z,99.90
2018-07-12T00:04:12.804Z,99.90
2018-07-12T00:06:39.233Z,99.90
2018-07-12T00:09:05.920Z,99.90
2018-07-12T00:11:32.365Z,99.90
2018-07-12T00:13:58.821Z,99.90
2018-07-12T00:16:25.304Z,99.90
2018-07-12T00:18:51.753Z,99.90
2018-07-12T00:21:18.294Z,99.90
2018-07-12T00:23:44.725Z,99.90
2018-07-12T00:26:11.144Z,99.90
2018-07-12T00:28:37.615Z,99.90
2018-07-12T00:31:04.016Z,99.90
2018-07-12T00:33:30.471Z,99.90
2018-07-12T00:35:56.909Z,99.90
2018-07-12T00:38:23.329Z,99.90
2018-07-12T00:40:49.744Z,99.90
2018-07-12T00:43:16.176Z,99.90
2018-07-12T00:45:42.635Z,99.90
2018-07-12T00:48:09.065Z,99.90
2018-07-12T00:50:35.482Z,99.90
2018-07-12T00:53:01.893Z,99.90
2018-07-12T00:55:28.308Z,99.90
2018-07-12T00:57:54.766Z,99.90
2018-07-12T01:00:21.209Z,99.90
2018-07-12T01:02:47.621Z,99.90
2018-07-12T01:05:14.022Z,99.90
2018-07-12T01:07:40.460Z,99.90
2018-07-12T01:10:06.890Z,99.90
2018-07-12T01:12:33.321Z,99.90
2018-07-12T01:17:26.905Z,99.90
2018-07-12T01:22:20.249Z,99.90
2018-07-12T01:24:46.674Z,99.90
2018-07-12T01:27:13.092Z,99.90
2018-07-12T01:29:39.508Z,99.90
2018-07-12T01:32:05.943Z,99.90
2018-07-12T01:34:32.381Z,99.90
2018-07-12T01:36:58.802Z,99.90
2018-07-12T01:39:25.242Z,99.90
2018-07-12T01:41:51.695Z,99.90
2018-07-12T01:44:18.142Z,99.90
2018-07-12T01:46:44.573Z,99.90
2018-07-12T01:49:10.989Z,99.90
2018-07-12T01:51:37.382Z,99.90
2018-07-12T01:54:03.809Z,99.90
2018-07-12T01:56:30.204Z,99.90
2018-07-12T01:58:56.641Z,99.90
2018-07-12T02:01:23.084Z,99.90
2018-07-12T02:03:49.492Z,99.90
2018-07-12T02:06:15.923Z,99.90
2018-07-12T02:08:42.342Z,99.90
2018-07-12T02:11:09.474Z,99.90
2018-07-12T02:13:35.887Z,99.90
2018-07-12T02:16:02.301Z,99.90
2018-07-12T02:18:28.724Z,99.90
2018-07-12T02:20:55.153Z,99.90
2018-07-12T02:23:21.581Z,99.90
2018-07-12T02:25:47.986Z,99.90
2018-07-12T02:28:14.427Z,99.90
2018-07-12T02:30:40.874Z,99.90
2018-07-12T02:33:07.294Z,99.90
2018-07-12T02:35:33.730Z,99.90
2018-07-12T02:38:00.155Z,99.90
2018-07-12T02:40:26.599Z,99.90
2018-07-12T02:42:53.031Z,99.90
2018-07-12T02:45:19.453Z,99.90
2018-07-12T02:47:45.890Z,99.90
2018-07-12T02:50:12.323Z,99.90
2018-07-12T02:52:38.768Z,99.90
2018-07-12T02:55:05.188Z,99.90
2018-07-12T02:57:31.666Z,99.90
2018-07-12T02:59:58.090Z,99.90
2018-07-12T03:02:24.497Z,99.90
2018-07-12T03:04:50.990Z,99.90
2018-07-12T03:07:17.448Z,99.90
2018-07-12T03:09:43.879Z,99.90
2018-07-12T03:12:10.310Z,99.90
2018-07-12T03:14:36.743Z,99.90
2018-07-12T03:17:03.207Z,99.90
2018-07-12T03:19:29.629Z,99.90
2018-07-12T03:21:56.101Z,99.90
2018-07-12T03:24:22.575Z,99.90
2018-07-12T03:26:49.036Z,99.90
2018-07-12T03:29:15.486Z,99.90
2018-07-12T03:31:41.927Z,99.90
2018-07-12T03:34:08.503Z,99.90
2018-07-12T03:36:45.980Z,99.90
2018-07-12T03:39:18.748Z,99.90
2018-07-12T03:41:47.302Z,99.90
2018-07-12T03:44:15.049Z,99.90
2018-07-12T03:46:41.738Z,99.90
2018-07-12T03:49:08.326Z,99.90
2018-07-12T03:51:41.870Z,99.90
2018-07-12T03:54:32.652Z,99.90
2018-07-12T04:04:06.016Z,99.90
2018-07-12T04:06:32.654Z,99.90
2018-07-12T04:15:54.431Z,99.90
2018-07-12T04:18:46.073Z,99.90
2018-07-12T05:34:14.287Z,80.50
2018-07-12T06:07:38.791Z,86.20
2018-07-12T06:18:22.640Z,84.30
2018-07-12T06:27:38.565Z,82.80
2018-07-12T06:30:27.457Z,83.70
2018-07-12T07:05:31.343Z,80.30
2018-07-12T07:19:56.372Z,89.70
2018-07-12T07:39:23.472Z,92.10
2018-07-12T08:17:22.783Z,90.80
2018-07-12T08:23:24.863Z,90.20
2018-07-12T08:29:29.556Z,91.00
2018-07-12T08:38:49.231Z,86.80
2018-07-12T08:46:38.836Z,86.40
2018-07-12T08:50:19.211Z,87.10
2018-07-12T16:37:36.834Z,54.90
2018-07-12T19:49:18.830Z,94.30
2018-07-12T19:54:06.980Z,98.50
2018-07-12T20:19:19.221Z,99.90
2018-07-12T20:57:13.044Z,99.90
2018-07-12T21:16:54.078Z,99.90
2018-07-12T21:21:38.724Z,99.90
2018-07-12T21:34:54.718Z,99.90
2018-07-12T21:39:18.007Z,99.90
2018-07-12T21:41:48.166Z,99.90
2018-07-12T21:44:44.841Z,99.90
2018-07-12T21:47:32.045Z,99.90
2018-07-12T22:13:28.559Z,99.90
2018-07-12T22:21:06.228Z,99.90
2018-07-12T22:23:38.100Z,99.90
2018-07-12T22:26:06.327Z,99.90
2018-07-12T22:28:42.965Z,99.90
2018-07-12T22:34:09.593Z,99.90
2018-07-12T22:36:58.949Z,99.90
2018-07-12T22:39:39.324Z,99.90
2018-07-12T22:42:21.382Z,99.90
2018-07-12T22:44:51.150Z,99.90
2018-07-12T22:50:45.446Z,99.90
2018-07-12T22:56:10.333Z,99.90
2018-07-12T22:58:46.635Z,99.90
2018-07-12T23:01:16.109Z,99.90
2018-07-12T23:03:44.089Z,99.90
2018-07-12T23:06:12.925Z,99.90
2018-07-12T23:08:44.090Z,99.90
2018-07-12T23:13:57.230Z,99.90
2018-07-12T23:16:28.299Z,99.90
2018-07-12T23:19:01.068Z,99.90
2018-07-12T23:21:39.519Z,99.90
2018-07-12T23:28:26.781Z,99.90
2018-07-12T23:31:57.741Z,99.90
2018-07-12T23:39:46.392Z,99.90
2018-07-12T23:50:11.333Z,99.90
2018-07-12T23:56:31.972Z,99.90
